createdAt,value
2019-01-20T00:01:03.750Z,0.15
2019-01-20T00:03:35.045Z,0.15
2019-01-20T00:06:07.796Z,0.14
2019-01-20T00:08:38.913Z,0.14
2019-01-20T00:11:16.612Z,0.12
2019-01-20T00:13:43.078Z,0.11
2019-01-20T00:16:14.384Z,0.09
2019-01-20T00:18:45.594Z,0.09
2019-01-20T00:21:16.795Z,0.07
2019-01-20T00:23:48.075Z,0.06
2019-01-20T00:26:19.262Z,0.04
2019-01-20T00:28:50.514Z,0.00
2019-01-20T00:31:21.688Z,-0.02
2019-01-20T00:33:52.845Z,-0.04
2019-01-20T00:36:24.091Z,-0.07
2019-01-20T00:38:55.326Z,-0.08
2019-01-20T00:41:26.536Z,-0.08
2019-01-20T00:43:57.760Z,-0.10
2019-01-20T00:46:28.896Z,-0.12
2019-01-20T00:49:00.292Z,-0.11
2019-01-20T00:51:31.795Z,-0.12
2019-01-20T00:54:02.972Z,-0.14
2019-01-20T00:56:34.498Z,-0.15
2019-01-20T00:59:05.641Z,-0.17
2019-01-20T01:01:36.978Z,-0.19
2019-01-20T01:04:08.193Z,-0.20
2019-01-20T01:06:39.579Z,-0.23
2019-01-20T01:09:10.887Z,-0.26
2019-01-20T01:11:42.052Z,-0.27
2019-01-20T01:14:13.579Z,-0.30
2019-01-20T01:16:44.821Z,-0.30
2019-01-20T01:19:16.097Z,-0.31
2019-01-20T01:21:47.234Z,-0.34
2019-01-20T01:24:18.453Z,-0.36
2019-01-20T01:26:50.649Z,-0.39
2019-01-20T01:29:21.805Z,-0.43
2019-01-20T01:31:53.095Z,-0.46
2019-01-20T01:34:24.312Z,-0.48
2019-01-20T01:36:55.552Z,-0.49
2019-01-20T01:39:26.776Z,-0.52
2019-01-20T01:41:57.949Z,-0.53
2019-01-20T01:44:29.126Z,-0.54
2019-01-20T01:47:00.285Z,-0.56
2019-01-20T01:49:31.525Z,-0.57
2019-01-20T01:52:02.682Z,-0.57
2019-01-20T01:54:33.891Z,-0.59
2019-01-20T01:57:05.163Z,-0.59
2019-01-20T01:59:36.307Z,-0.60
2019-01-20T02:02:07.487Z,-0.64
2019-01-20T02:04:38.666Z,-0.67
2019-01-20T02:07:10.063Z,-0.68
2019-01-20T02:09:41.335Z,-0.69
2019-01-20T02:12:12.652Z,-0.72
2019-01-20T02:14:43.932Z,-0.74
2019-01-20T02:17:15.224Z,-0.76
2019-01-20T02:19:46.404Z,-0.77
2019-01-20T02:22:17.611Z,-0.79
2019-01-20T02:24:48.909Z,-0.80
2019-01-20T02:27:20.178Z,-0.82
2019-01-20T02:29:51.383Z,-0.83
2019-01-20T02:32:23.657Z,-0.84
2019-01-20T02:34:54.909Z,-0.86
2019-01-20T02:37:26.119Z,-0.87
2019-01-20T02:39:57.325Z,-0.88
2019-01-20T02:42:28.504Z,-0.90
2019-01-20T02:44:59.793Z,-0.92
2019-01-20T02:47:30.987Z,-0.93
2019-01-20T02:50:02.195Z,-0.96
2019-01-20T02:52:33.385Z,-0.99
2019-01-20T02:55:05.096Z,-1.00
2019-01-20T02:57:37.349Z,-1.02
2019-01-20T03:00:20.167Z,-1.05
2019-01-20T03:02:52.789Z,-1.07
2019-01-20T03:05:24.715Z,-1.09
2019-01-20T03:07:55.994Z,-1.10
2019-01-20T03:10:27.243Z,-1.13
2019-01-20T03:12:58.652Z,-1.16
2019-01-20T03:15:29.960Z,-1.17
2019-01-20T03:18:02.159Z,-1.20
2019-01-20T03:20:33.491Z,-1.22
2019-01-20T03:23:04.727Z,-1.24
2019-01-20T03:25:35.961Z,-1.26
2019-01-20T03:28:07.196Z,-1.28
2019-01-20T03:30:38.399Z,-1.30
2019-01-20T03:33:11.943Z,-1.31
2019-01-20T03:35:46.105Z,-1.32
2019-01-20T03:38:17.388Z,-1.34
2019-01-20T03:40:48.674Z,-1.36
2019-01-20T03:43:19.882Z,-1.37
2019-01-20T03:45:51.122Z,-1.40
2019-01-20T03:48:22.451Z,-1.41
2019-01-20T03:50:53.684Z,-1.42
2019-01-20T03:53:24.898Z,-1.43
2019-01-20T03:55:56.100Z,-1.46
2019-01-20T03:58:27.232Z,-1.47
2019-01-20T04:00:58.601Z,-1.48
2019-01-20T04:03:29.919Z,-1.49
2019-01-20T04:06:01.180Z,-1.52
2019-01-20T04:08:32.468Z,-1.54
2019-01-20T04:11:03.912Z,-1.56
2019-01-20T04:13:35.225Z,-1.57
2019-01-20T04:16:06.476Z,-1.59
2019-01-20T04:18:37.892Z,-1.61
2019-01-20T04:21:09.200Z,-1.64
2019-01-20T04:23:40.497Z,-1.65
2019-01-20T04:26:11.731Z,-1.65
2019-01-20T04:28:43.173Z,-1.67
2019-01-20T04:31:14.327Z,-1.68
2019-01-20T04:33:45.609Z,-1.68
2019-01-20T04:36:16.895Z,-1.68
2019-01-20T04:38:48.209Z,-1.70
2019-01-20T04:41:19.425Z,-1.72
2019-01-20T04:43:51.769Z,-1.72
2019-01-20T04:46:23.068Z,-1.73
2019-01-20T04:48:54.401Z,-1.74
2019-01-20T04:51:25.675Z,-1.76
2019-01-20T04:53:57.329Z,-1.77
2019-01-20T04:56:28.676Z,-1.79
2019-01-20T04:58:59.880Z,-1.82
2019-01-20T05:01:31.152Z,-1.83
2019-01-20T05:04:02.611Z,-1.84
2019-01-20T05:06:33.852Z,-1.86
2019-01-20T05:09:07.813Z,-1.88
2019-01-20T05:11:39.031Z,-1.91
2019-01-20T05:14:10.338Z,-1.93
2019-01-20T05:16:41.541Z,-1.94
2019-01-20T05:19:13.157Z,-1.96
2019-01-20T05:21:44.369Z,-1.97
2019-01-20T05:24:15.599Z,-1.97
2019-01-20T05:26:46.883Z,-1.98
2019-01-20T05:29:18.146Z,-1.99
2019-01-20T05:31:49.368Z,-2.01
2019-01-20T05:34:20.698Z,-2.01
2019-01-20T05:36:52.190Z,-2.02
2019-01-20T05:39:23.427Z,-2.03
2019-01-20T05:41:54.950Z,-2.04
2019-01-20T05:44:26.089Z,-2.08
2019-01-20T05:46:57.282Z,-2.09
2019-01-20T05:49:28.453Z,-2.11
2019-01-20T05:51:59.794Z,-2.11
2019-01-20T05:54:30.957Z,-2.13
2019-01-20T05:57:02.216Z,-2.13
2019-01-20T05:59:33.420Z,-2.15
2019-01-20T06:02:04.690Z,-2.16
2019-01-20T06:04:36.004Z,-2.19
2019-01-20T06:07:07.415Z,-2.21
2019-01-20T06:09:38.600Z,-2.23
2019-01-20T06:12:09.931Z,-2.24
2019-01-20T06:14:41.155Z,-2.26
2019-01-20T06:17:12.396Z,-2.28
2019-01-20T06:19:43.761Z,-2.31
2019-01-20T06:22:15.074Z,-2.33
2019-01-20T06:24:46.334Z,-2.34
2019-01-20T06:27:17.567Z,-2.35
2019-01-20T06:29:49.037Z,-2.38
2019-01-20T06:32:20.467Z,-2.39
2019-01-20T06:34:51.759Z,-2.42
2019-01-20T06:37:23.086Z,-2.43
2019-01-20T06:39:57.184Z,-2.44
2019-01-20T06:42:28.421Z,-2.46
2019-01-20T06:44:59.615Z,-2.47
2019-01-20T06:47:30.883Z,-2.48
2019-01-20T06:50:02.161Z,-2.47
2019-01-20T06:52:34.421Z,-2.50
2019-01-20T06:55:06.449Z,-2.50
2019-01-20T06:57:37.773Z,-2.50
2019-01-20T07:00:14.806Z,-2.53
2019-01-20T07:02:46.089Z,-2.54
2019-01-20T07:05:17.442Z,-2.56
2019-01-20T07:07:49.004Z,-2.57
2019-01-20T07:10:20.802Z,-2.58
2019-01-20T07:12:52.153Z,-2.58
2019-01-20T07:15:24.717Z,-2.59
2019-01-20T07:17:55.912Z,-2.58
2019-01-20T07:20:27.133Z,-2.58
2019-01-20T07:22:58.341Z,-2.58
2019-01-20T07:25:29.575Z,-2.57
2019-01-20T07:28:01.001Z,-2.57
2019-01-20T07:30:32.187Z,-2.58
2019-01-20T07:33:05.057Z,-2.57
2019-01-20T07:35:36.329Z,-2.55
2019-01-20T07:38:07.694Z,-2.53
2019-01-20T07:40:41.925Z,-2.52
2019-01-20T07:43:17.034Z,-2.50
2019-01-20T07:45:46.258Z,-2.50
2019-01-20T07:48:17.614Z,-2.47
2019-01-20T07:50:48.931Z,-2.46
2019-01-20T07:53:20.124Z,-2.43
2019-01-20T07:55:51.380Z,-2.42
2019-01-20T07:58:22.566Z,-2.39
2019-01-20T08:00:53.811Z,-2.38
2019-01-20T08:03:25.035Z,-2.37
2019-01-20T08:05:58.115Z,-2.36
2019-01-20T08:08:29.348Z,-2.33
2019-01-20T08:11:00.615Z,-2.33
2019-01-20T08:13:31.785Z,-2.30
2019-01-20T08:16:03.020Z,-2.28
2019-01-20T08:18:34.443Z,-2.24
2019-01-20T08:21:05.639Z,-2.22
2019-01-20T08:23:36.834Z,-2.20
2019-01-20T08:26:08.123Z,-2.17
2019-01-20T08:28:39.414Z,-2.16
2019-01-20T08:31:10.653Z,-2.14
2019-01-20T08:33:42.001Z,-2.11
2019-01-20T08:36:13.255Z,-2.09
2019-01-20T08:38:44.557Z,-2.06
2019-01-20T08:41:15.884Z,-2.01
2019-01-20T08:43:47.282Z,-1.99
2019-01-20T08:46:49.632Z,-1.96
2019-01-20T08:49:20.867Z,-1.93
2019-01-20T08:51:52.034Z,-1.89
2019-01-20T08:54:23.370Z,-1.84
2019-01-20T08:56:54.640Z,-1.82
2019-01-20T08:59:25.910Z,-1.78
2019-01-20T09:01:57.159Z,-1.75
2019-01-20T09:04:28.406Z,-1.70
2019-01-20T09:06:59.701Z,-1.65
2019-01-20T09:09:30.948Z,-1.62
2019-01-20T09:12:02.243Z,-1.57
2019-01-20T09:14:33.430Z,-1.52
2019-01-20T09:17:05.115Z,-1.47
2019-01-20T09:19:36.415Z,-1.43
2019-01-20T09:22:07.710Z,-1.38
2019-01-20T09:24:39.308Z,-1.33
2019-01-20T09:27:10.672Z,-1.28
2019-01-20T09:29:41.918Z,-1.24
2019-01-20T09:32:13.556Z,-1.19
2019-01-20T09:34:44.865Z,-1.15
2019-01-20T09:37:16.567Z,-1.10
2019-01-20T09:39:47.863Z,-1.03
2019-01-20T09:42:19.336Z,-0.98
2019-01-20T09:44:50.563Z,-0.94
2019-01-20T09:47:21.845Z,-0.89
2019-01-20T09:49:53.335Z,-0.86
2019-01-20T09:52:24.874Z,-0.81
2019-01-20T09:54:56.077Z,-0.75
2019-01-20T09:57:27.371Z,-0.71
2019-01-20T09:59:58.582Z,-0.66
2019-01-20T10:02:30.002Z,-0.59
2019-01-20T10:05:02.457Z,-0.54
2019-01-20T10:07:33.637Z,-0.50
2019-01-20T10:10:05.892Z,-0.45
2019-01-20T10:12:37.119Z,-0.40
2019-01-20T10:15:09.758Z,-0.35
2019-01-20T10:17:41.204Z,-0.30
2019-01-20T10:20:18.624Z,-0.25
2019-01-20T10:22:50.449Z,-0.19
2019-01-20T10:25:22.668Z,-0.13
2019-01-20T10:27:53.936Z,-0.09
2019-01-20T10:30:30.552Z,-0.05
2019-01-20T10:33:03.359Z,-0.02
2019-01-20T10:35:52.550Z,0.04
2019-01-20T10:38:23.750Z,0.09
2019-01-20T10:40:54.986Z,0.15
2019-01-20T10:43:26.265Z,0.17
2019-01-20T10:45:57.521Z,0.22
2019-01-20T10:48:28.760Z,0.27
2019-01-20T10:51:00.024Z,0.30
2019-01-20T10:53:31.275Z,0.36
2019-01-20T10:56:02.440Z,0.41
2019-01-20T10:58:33.615Z,0.45
2019-01-20T11:01:04.904Z,0.50
2019-01-20T11:03:36.210Z,0.54
2019-01-20T11:06:07.379Z,0.58
2019-01-20T11:08:38.553Z,0.62
2019-01-20T11:11:09.896Z,0.68
2019-01-20T11:13:41.161Z,0.72
2019-01-20T11:16:13.208Z,0.76
2019-01-20T11:18:44.471Z,0.82
2019-01-20T11:21:15.737Z,0.85
2019-01-20T11:23:47.469Z,0.88
2019-01-20T11:26:19.371Z,0.93
2019-01-20T11:28:50.925Z,0.96
2019-01-20T11:31:22.219Z,1.01
2019-01-20T11:33:53.480Z,1.06
2019-01-20T11:36:24.671Z,1.10
2019-01-20T11:38:55.992Z,1.13
2019-01-20T11:41:28.455Z,1.16
2019-01-20T11:43:59.856Z,1.19
2019-01-20T11:46:31.080Z,1.23
2019-01-20T11:49:02.313Z,1.25
2019-01-20T11:51:33.494Z,1.28
2019-01-20T11:54:04.690Z,1.31
2019-01-20T11:56:35.935Z,1.35
2019-01-20T11:59:07.132Z,1.38
2019-01-20T12:01:38.419Z,1.42
2019-01-20T12:04:09.593Z,1.44
2019-01-20T12:06:40.796Z,1.47
2019-01-20T12:09:12.008Z,1.50
2019-01-20T12:11:43.198Z,1.55
2019-01-20T12:14:14.483Z,1.58
2019-01-20T12:16:45.674Z,1.63
2019-01-20T12:19:16.953Z,1.65
2019-01-20T12:21:48.293Z,1.69
2019-01-20T12:24:19.557Z,1.74
2019-01-20T12:26:50.898Z,1.77
2019-01-20T12:29:22.399Z,1.82
2019-01-20T12:31:53.662Z,1.84
2019-01-20T12:34:24.962Z,1.88
2019-01-20T12:36:56.193Z,1.93
2019-01-20T12:39:27.398Z,1.97
2019-01-20T12:41:58.611Z,2.01
2019-01-20T12:44:31.575Z,2.04
2019-01-20T12:47:03.057Z,2.08
2019-01-20T12:49:34.315Z,2.12
2019-01-20T12:52:05.631Z,2.15
2019-01-20T12:54:36.978Z,2.18
2019-01-20T12:57:08.208Z,2.22
2019-01-20T12:59:39.404Z,2.25
2019-01-20T13:02:10.650Z,2.28
2019-01-20T13:04:41.900Z,2.30
2019-01-20T13:07:13.239Z,2.33
2019-01-20T13:09:44.314Z,2.36
2019-01-20T13:12:15.545Z,2.38
2019-01-20T13:14:46.910Z,2.40
2019-01-20T13:17:18.267Z,2.43
2019-01-20T13:19:49.532Z,2.45
2019-01-20T13:22:20.689Z,2.48
2019-01-20T13:24:52.065Z,2.49
2019-01-20T13:27:23.264Z,2.53
2019-01-20T13:29:54.583Z,2.55
2019-01-20T13:32:25.792Z,2.57
2019-01-20T13:34:57.232Z,2.58
2019-01-20T13:37:28.444Z,2.61
2019-01-20T13:39:59.663Z,2.61
2019-01-20T13:42:31.449Z,2.63
2019-01-20T13:45:03.049Z,2.65
2019-01-20T13:47:34.228Z,2.66
2019-01-20T13:50:07.570Z,2.67
2019-01-20T13:52:38.823Z,2.69
2019-01-20T13:55:10.625Z,2.70
2019-01-20T13:57:42.757Z,2.73
2019-01-20T14:00:17.723Z,2.75
2019-01-20T14:02:49.971Z,2.77
2019-01-20T14:05:21.349Z,2.89
2019-01-20T14:07:52.632Z,3.21
2019-01-20T14:10:24.386Z,3.58
2019-01-20T14:12:55.646Z,3.99
2019-01-20T14:15:26.989Z,4.31
2019-01-20T14:17:58.348Z,4.58
2019-01-20T14:20:29.554Z,4.69
2019-01-20T14:23:00.757Z,4.73
2019-01-20T14:25:32.062Z,4.81
2019-01-20T14:28:03.370Z,5.03
2019-01-20T14:30:34.704Z,5.29
2019-01-20T14:33:06.029Z,5.54
2019-01-20T14:35:37.219Z,5.73
2019-01-20T14:38:08.496Z,5.75
2019-01-20T14:40:39.774Z,5.69
2019-01-20T14:43:11.130Z,5.56
2019-01-20T14:45:42.455Z,5.41
2019-01-20T14:48:13.707Z,5.27
2019-01-20T14:50:46.152Z,5.12
2019-01-20T14:53:18.401Z,4.96
2019-01-20T14:55:49.642Z,4.81
2019-01-20T14:58:20.939Z,4.66
2019-01-20T15:00:52.170Z,4.49
2019-01-20T15:03:23.469Z,4.33
2019-01-20T15:05:54.754Z,4.20
2019-01-20T15:08:26.023Z,4.05
2019-01-20T15:10:57.175Z,3.94
2019-01-20T15:13:28.785Z,3.81
2019-01-20T15:16:01.274Z,3.69
2019-01-20T15:18:32.749Z,3.58
2019-01-20T15:21:04.282Z,3.46
2019-01-20T15:23:35.536Z,3.35
2019-01-20T15:26:06.800Z,3.27
2019-01-20T15:28:38.412Z,3.16
2019-01-20T15:31:09.698Z,3.06
2019-01-20T15:33:40.992Z,2.96
2019-01-20T15:36:12.290Z,2.84
2019-01-20T15:38:43.644Z,2.75
2019-01-20T15:41:14.809Z,2.65
2019-01-20T15:43:46.138Z,2.57
2019-01-20T15:46:17.594Z,2.49
2019-01-20T15:48:48.892Z,2.42
2019-01-20T15:51:20.219Z,2.34
2019-01-20T15:53:51.438Z,2.26
2019-01-20T15:56:23.043Z,2.19
2019-01-20T15:58:54.570Z,2.11
2019-01-20T16:01:25.961Z,2.05
2019-01-20T16:03:57.795Z,1.99
2019-01-20T16:06:29.458Z,1.92
2019-01-20T16:09:01.443Z,1.85
2019-01-20T16:11:34.061Z,1.79
2019-01-20T16:14:05.774Z,1.73
2019-01-20T16:16:38.362Z,1.68
2019-01-20T16:19:09.848Z,1.63
2019-01-20T16:21:44.825Z,1.56
2019-01-20T16:24:25.132Z,1.51
2019-01-20T16:27:01.053Z,1.45
2019-01-20T16:29:31.914Z,1.41
2019-01-20T16:32:04.620Z,1.37
2019-01-20T16:34:36.385Z,1.32
2019-01-20T16:37:07.834Z,1.28
2019-01-20T16:39:45.652Z,1.24
2019-01-20T16:42:15.622Z,1.20
2019-01-20T16:44:47.085Z,1.17
2019-01-20T16:47:19.931Z,1.13
2019-01-20T16:49:51.093Z,1.11
2019-01-20T16:52:23.585Z,1.07
2019-01-20T16:54:55.022Z,1.04
2019-01-20T16:57:28.930Z,1.02
2019-01-20T17:00:12.390Z,0.97
2019-01-20T17:02:43.697Z,0.94
2019-01-20T17:05:14.952Z,0.92
2019-01-20T17:07:46.299Z,0.88
2019-01-20T17:10:20.016Z,0.85
2019-01-20T17:12:52.434Z,0.82
2019-01-20T17:15:26.199Z,0.78
2019-01-20T17:17:57.706Z,0.76
2019-01-20T17:20:29.445Z,0.73
2019-01-20T17:23:01.276Z,0.70
2019-01-20T17:25:32.981Z,0.67
2019-01-20T17:28:04.788Z,0.64
2019-01-20T17:30:36.765Z,0.61
2019-01-20T17:33:10.726Z,0.59
2019-01-20T17:35:42.278Z,0.57
2019-01-20T17:38:16.544Z,0.55
2019-01-20T17:40:50.295Z,0.53
2019-01-20T17:43:23.917Z,0.50
2019-01-20T17:45:55.320Z,0.49
2019-01-20T17:48:26.726Z,0.47
2019-01-20T17:51:00.276Z,0.44
2019-01-20T17:53:31.992Z,0.43
2019-01-20T17:56:03.351Z,0.40
2019-01-20T17:58:35.273Z,0.39
2019-01-20T18:01:08.387Z,0.38
2019-01-20T18:03:39.691Z,0.35
2019-01-20T18:06:10.912Z,0.34
2019-01-20T18:08:42.160Z,0.33
2019-01-20T18:11:13.809Z,0.29
2019-01-20T18:13:46.340Z,0.28
2019-01-20T18:16:17.603Z,0.26
2019-01-20T18:18:48.808Z,0.26
2019-01-20T18:21:20.008Z,0.25
2019-01-20T18:23:51.222Z,0.24
2019-01-20T18:26:22.420Z,0.22
2019-01-20T18:28:53.667Z,0.20
2019-01-20T18:31:25.086Z,0.18
2019-01-20T18:33:56.578Z,0.16
2019-01-20T18:36:27.837Z,0.15
2019-01-20T18:38:59.185Z,0.13
2019-01-20T18:41:30.882Z,0.12
2019-01-20T18:44:02.812Z,0.11
2019-01-20T18:46:34.104Z,0.09
2019-01-20T18:49:05.376Z,0.09
2019-01-20T18:51:36.599Z,0.08
2019-01-20T18:54:08.042Z,0.07
2019-01-20T18:56:39.482Z,0.06
2019-01-20T18:59:10.618Z,0.04
2019-01-20T19:01:41.834Z,0.02
2019-01-20T19:04:14.023Z,-0.02
2019-01-20T19:06:45.501Z,-0.04
2019-01-20T19:09:16.840Z,-0.06
2019-01-20T19:11:48.057Z,-0.07
2019-01-20T19:14:19.444Z,-0.09
2019-01-20T19:16:50.867Z,-0.11
2019-01-20T19:19:22.267Z,-0.13
2019-01-20T19:21:53.594Z,-0.14
2019-01-20T19:24:25.115Z,-0.17
2019-01-20T19:26:57.499Z,-0.17
2019-01-20T19:29:28.782Z,-0.19
2019-01-20T19:32:00.062Z,-0.20
2019-01-20T19:34:31.271Z,-0.22
2019-01-20T19:37:02.548Z,-0.23
2019-01-20T19:39:33.797Z,-0.25
2019-01-20T19:42:05.017Z,-0.26
2019-01-20T19:44:36.376Z,-0.28
2019-01-20T19:47:07.616Z,-0.29
2019-01-20T19:49:38.994Z,-0.30
2019-01-20T19:52:10.260Z,-0.30
2019-01-20T19:54:41.755Z,-0.31
2019-01-20T19:57:13.150Z,-0.32
2019-01-20T19:59:44.606Z,-0.30
2019-01-20T20:02:15.999Z,-0.30
2019-01-20T20:04:47.496Z,-0.31
2019-01-20T20:07:18.701Z,-0.31
2019-01-20T20:09:49.936Z,-0.32
2019-01-20T20:12:21.255Z,-0.33
2019-01-20T20:14:52.566Z,-0.36
2019-01-20T20:17:23.782Z,-0.37
2019-01-20T20:19:55.028Z,-0.38
2019-01-20T20:22:27.683Z,-0.38
2019-01-20T20:24:58.955Z,-0.40
2019-01-20T20:27:30.235Z,-0.42
2019-01-20T20:30:01.922Z,-0.42
2019-01-20T20:32:33.478Z,-0.44
2019-01-20T20:35:06.122Z,-0.45
2019-01-20T20:37:37.843Z,-0.48
2019-01-20T20:40:10.571Z,-0.47
2019-01-20T20:42:41.879Z,-0.50
2019-01-20T20:45:15.745Z,-0.51
2019-01-20T20:47:47.490Z,-0.54
2019-01-20T20:50:18.896Z,-0.57
2019-01-20T20:52:50.392Z,-0.59
2019-01-20T20:55:22.041Z,-0.62
2019-01-20T20:57:54.502Z,-0.64
2019-01-20T21:00:31.446Z,-0.65
2019-01-20T21:03:04.897Z,-0.66
2019-01-20T21:05:36.386Z,-0.69
2019-01-20T21:08:08.641Z,-0.68
2019-01-20T21:10:41.243Z,-0.70
2019-01-20T21:13:13.888Z,-0.71
2019-01-20T21:15:45.354Z,-0.73
2019-01-20T21:18:16.729Z,-0.75
2019-01-20T21:20:48.331Z,-0.77
2019-01-20T21:23:19.701Z,-0.78
2019-01-20T21:25:51.150Z,-0.79
2019-01-20T21:28:22.339Z,-0.81
2019-01-20T21:30:53.530Z,-0.84
2019-01-20T21:33:24.903Z,-0.86
2019-01-20T21:35:56.211Z,-0.88
2019-01-20T21:38:27.517Z,-0.90
2019-01-20T21:40:58.766Z,-0.91
2019-01-20T21:43:30.062Z,-0.92
2019-01-20T21:46:01.232Z,-0.97
2019-01-20T21:48:32.580Z,-0.99
2019-01-20T21:51:04.155Z,-1.02
2019-01-20T21:53:35.436Z,-1.06
2019-01-20T21:56:06.827Z,-1.06
2019-01-20T21:58:38.187Z,-1.10
2019-01-20T22:01:09.569Z,-1.11
2019-01-20T22:03:40.857Z,-1.15
2019-01-20T22:06:12.094Z,-1.18
2019-01-20T22:08:43.602Z,-1.20
2019-01-20T22:11:15.161Z,-1.23
2019-01-20T22:13:48.101Z,-1.24
2019-01-20T22:16:19.270Z,-1.27
2019-01-20T22:18:50.558Z,-1.27
2019-01-20T22:21:22.249Z,-1.28
2019-01-20T22:23:53.497Z,-1.32
2019-01-20T22:26:24.761Z,-1.32
2019-01-20T22:28:55.925Z,-1.34
2019-01-20T22:31:28.338Z,-1.35
2019-01-20T22:33:59.582Z,-1.35
2019-01-20T22:36:30.879Z,-1.37
2019-01-20T22:39:02.229Z,-1.37
2019-01-20T22:41:35.052Z,-1.38
2019-01-20T22:44:06.431Z,-1.39
2019-01-20T22:46:37.792Z,-1.41
2019-01-20T22:49:09.115Z,-1.44
2019-01-20T22:51:40.332Z,-1.45
2019-01-20T22:54:11.800Z,-1.46
2019-01-20T22:56:43.032Z,-1.48
2019-01-20T22:59:14.254Z,-1.51
2019-01-20T23:01:45.791Z,-1.52
2019-01-20T23:04:17.345Z,-1.54
2019-01-20T23:06:49.057Z,-1.56
2019-01-20T23:09:21.285Z,-1.56
2019-01-20T23:11:52.613Z,-1.56
2019-01-20T23:14:23.891Z,-1.56
2019-01-20T23:16:55.261Z,-1.58
2019-01-20T23:19:26.620Z,-1.57
2019-01-20T23:21:58.059Z,-1.57
2019-01-20T23:24:29.342Z,-1.57
2019-01-20T23:27:01.743Z,-1.56
2019-01-20T23:29:33.995Z,-1.57
2019-01-20T23:32:05.324Z,-1.57
2019-01-20T23:34:36.634Z,-1.57
2019-01-20T23:37:07.816Z,-1.57
2019-01-20T23:39:39.034Z,-1.58
2019-01-20T23:42:10.207Z,-1.58
2019-01-20T23:44:41.413Z,-1.61
2019-01-20T23:47:15.271Z,-1.62
2019-01-20T23:49:45.655Z,-1.61
2019-01-20T23:52:16.942Z,-1.61
2019-01-20T23:54:48.224Z,-1.63
2019-01-20T23:57:19.478Z,-1.63
2019-01-20T23:59:50.764Z,-1.63
